Time;durP1;ratioP1;P1;durP2;ratioP2;P2;SDS_P1;SDS_P2;PMS_P1;PMS_P2;Temp;Humidity;BMP_temperature;BMP_pressure;BME280_temperature;BME280_humidity;BME280_pressure;Samples;Min_cycle;Max_cycle;Signal;HPM_P1;HPM_P2
2023/05/17 00:02:05;;;;;;;75.07;32.53;;;;;;;;;;6188082;23;20051;-77
2023/05/17 00:04:32;;;;;;;75.38;30.38;;;;;;;;;;6214392;23;20001;-77
2023/05/17 00:06:57;;;;;;;77.22;33.55;;;;;;;;;;6214355;23;20001;-77
2023/05/17 00:09:23;;;;;;;83.78;32.63;;;;;;;;;;6212578;23;20012;-77
2023/05/17 00:11:48;;;;;;;74.30;32.17;;;;;;;;;;6212551;23;20001;-77
2023/05/17 00:14:13;;;;;;;85.00;32.85;;;;;;;;;;6187763;23;20350;-77
2023/05/17 00:16:39;;;;;;;69.60;30.08;;;;;;;;;;6212394;23;20030;-77
2023/05/17 00:19:05;;;;;;;73.15;31.02;;;;;;;;;;6214120;23;20122;-78
2023/05/17 00:21:30;;;;;;;68.57;31.02;;;;;;;;;;6214255;23;20474;-78
2023/05/17 00:23:55;;;;;;;71.88;31.05;;;;;;;;;;6162918;23;20001;-78
2023/05/17 00:26:21;;;;;;;72.75;31.15;;;;;;;;;;6214104;23;20092;-78
2023/05/17 00:28:46;;;;;;;73.78;30.80;;;;;;;;;;6212811;23;20008;-78
2023/05/17 00:31:12;;;;;;;68.40;31.77;;;;;;;;;;6212627;23;20428;-78
2023/05/17 00:33:37;;;;;;;73.88;31.98;;;;;;;;;;6214510;23;20004;-78
2023/05/17 00:36:03;;;;;;;80.43;32.35;;;;;;;;;;6212525;23;20027;-78
2023/05/17 00:38:28;;;;;;;84.90;32.90;;;;;;;;;;6187539;23;20016;-77
2023/05/17 00:40:54;;;;;;;74.20;33.28;;;;;;;;;;6214349;23;20379;-78
2023/05/17 00:43:19;;;;;;;80.55;32.05;;;;;;;;;;6212638;23;20486;-78
2023/05/17 00:45:47;;;;;;;80.30;34.30;;;;;;;;;;6212534;23;20448;-77
2023/05/17 00:48:12;;;;;;;81.93;33.97;;;;;;;;;;6212593;23;19997;-77
2023/05/17 00:50:38;;;;;;;85.20;35.47;;;;;;;;;;6162421;23;20451;-77
2023/05/17 00:53:03;;;;;;;76.43;34.17;;;;;;;;;;6187664;23;20001;-77
2023/05/17 00:55:29;;;;;;;76.45;32.05;;;;;;;;;;6212057;23;20011;-77
2023/05/17 00:57:54;;;;;;;91.47;34.13;;;;;;;;;;6187374;23;20075;-77
2023/05/17 01:00:20;;;;;;;75.28;33.05;;;;;;;;;;6212750;23;20474;-78
2023/05/17 01:02:47;;;;;;;79.15;34.03;;;;;;;;;;6187296;23;20317;-78
2023/05/17 01:05:12;;;;;;;88.32;36.05;;;;;;;;;;6213885;23;20005;-78
2023/05/17 01:07:39;;;;;;;83.85;34.90;;;;;;;;;;6213561;23;20001;-79
2023/05/17 01:10:05;;;;;;;85.05;37.08;;;;;;;;;;6213354;23;20008;-75
2023/05/17 01:12:42;;;;;;;85.32;35.38;;;;;;;;;;6187486;23;20032;-77
2023/05/17 01:15:18;;;;;;;81.13;34.03;;;;;;;;;;6212352;23;20439;-78
2023/05/17 01:17:58;;;;;;;77.30;33.70;;;;;;;;;;6164040;23;20016;-78
2023/05/17 01:20:36;;;;;;;78.40;34.00;;;;;;;;;;6212695;23;20031;-78
2023/05/17 01:23:39;;;;;;;87.18;35.13;;;;;;;;;;6187583;23;20005;-78
2023/05/17 01:26:17;;;;;;;81.40;35.30;;;;;;;;;;6213276;23;20000;-78
2023/05/17 01:28:45;;;;;;;90.22;34.28;;;;;;;;;;6211922;23;20008;-78
2023/05/17 01:31:11;;;;;;;76.63;32.85;;;;;;;;;;6187269;23;20391;-76
2023/05/17 01:33:36;;;;;;;94.43;38.33;;;;;;;;;;6187160;23;20008;-76
2023/05/17 01:36:02;;;;;;;95.88;37.70;;;;;;;;;;6212093;23;20412;-75
2023/05/17 01:38:27;;;;;;;86.97;34.05;;;;;;;;;;6212115;23;20015;-76
2023/05/17 01:41:05;;;;;;;77.82;32.95;;;;;;;;;;6213310;23;20000;-76
2023/05/17 01:43:49;;;;;;;82.70;33.67;;;;;;;;;;6212083;23;20020;-76
2023/05/17 01:46:31;;;;;;;81.47;38.17;;;;;;;;;;6212273;23;20369;-76
2023/05/17 01:49:15;;;;;;;98.57;38.33;;;;;;;;;;6188781;23;20412;-76
2023/05/17 01:52:15;;;;;;;92.40;38.90;;;;;;;;;;6213576;23;20005;-76
2023/05/17 01:54:50;;;;;;;83.90;36.05;;;;;;;;;;6151951;23;20005;-77
2023/05/17 01:57:15;;;;;;;102.65;38.05;;;;;;;;;;6186966;23;20389;-76
2023/05/17 01:59:41;;;;;;;84.63;34.85;;;;;;;;;;6186955;23;20000;-77
2023/05/17 02:02:07;;;;;;;83.63;36.33;;;;;;;;;;6211917;23;20047;-76
2023/05/17 02:04:33;;;;;;;82.85;34.80;;;;;;;;;;6187285;23;20001;-76
2023/05/17 02:06:59;;;;;;;80.00;34.58;;;;;;;;;;6211969;23;20008;-76
2023/05/17 02:09:25;;;;;;;79.38;31.92;;;;;;;;;;6211258;23;20021;-76
2023/05/17 02:11:50;;;;;;;78.90;32.33;;;;;;;;;;6211856;23;20013;-76
2023/05/17 02:14:15;;;;;;;82.95;32.45;;;;;;;;;;6187026;23;20009;-76
2023/05/17 02:16:41;;;;;;;73.38;30.55;;;;;;;;;;6212203;23;20352;-76
2023/05/17 02:19:07;;;;;;;74.45;30.00;;;;;;;;;;6186886;23;20009;-76
2023/05/17 02:21:36;;;;;;;60.45;27.48;;;;;;;;;;6213339;23;20016;-76
2023/05/17 02:24:02;;;;;;;67.38;27.92;;;;;;;;;;6211424;23;20494;-76
2023/05/17 02:26:27;;;;;;;65.53;25.95;;;;;;;;;;6211776;23;20005;-76
2023/05/17 02:28:53;;;;;;;61.80;26.08;;;;;;;;;;6213190;23;20019;-78
2023/05/17 02:31:18;;;;;;;61.78;24.95;;;;;;;;;;6186602;23;20329;-77
2023/05/17 02:33:44;;;;;;;57.08;23.23;;;;;;;;;;6213542;23;20004;-77
2023/05/17 02:36:09;;;;;;;60.47;23.17;;;;;;;;;;6211939;23;20004;-76
2023/05/17 02:38:35;;;;;;;50.22;21.95;;;;;;;;;;6213491;23;20440;-77
2023/05/17 02:41:00;;;;;;;50.28;23.00;;;;;;;;;;6163935;23;20008;-77
2023/05/17 02:43:26;;;;;;;47.45;21.17;;;;;;;;;;6213709;23;20067;-76
2023/05/17 02:45:51;;;;;;;54.35;22.52;;;;;;;;;;6213561;23;20000;-78
2023/05/17 02:48:17;;;;;;;55.00;23.30;;;;;;;;;;6215102;23;20062;-78
2023/05/17 02:50:42;;;;;;;54.42;22.42;;;;;;;;;;6215007;23;20090;-78
2023/05/17 02:53:08;;;;;;;51.03;21.92;;;;;;;;;;6163872;23;20004;-76
2023/05/17 02:55:33;;;;;;;54.40;21.92;;;;;;;;;;6213728;23;20420;-77
2023/05/17 02:57:59;;;;;;;52.60;22.05;;;;;;;;;;6188529;23;20008;-77
2023/05/17 03:00:24;;;;;;;54.15;22.45;;;;;;;;;;6214945;23;20095;-78
2023/05/17 03:02:50;;;;;;;51.95;21.77;;;;;;;;;;6214864;23;20016;-77
2023/05/17 03:05:15;;;;;;;61.38;22.00;;;;;;;;;;6188334;23;20024;-78
2023/05/17 03:07:41;;;;;;;56.30;21.38;;;;;;;;;;6212817;23;20379;-77
2023/05/17 03:10:06;;;;;;;55.95;21.05;;;;;;;;;;6214999;23;20008;-77
2023/05/17 03:12:32;;;;;;;48.97;21.92;;;;;;;;;;6188688;23;20005;-77
2023/05/17 03:14:57;;;;;;;47.67;21.42;;;;;;;;;;6213649;23;20000;-77
2023/05/17 03:17:23;;;;;;;50.00;21.20;;;;;;;;;;6188171;23;20087;-77
2023/05/17 03:19:48;;;;;;;54.53;22.73;;;;;;;;;;6188142;23;20063;-78
2023/05/17 03:22:14;;;;;;;55.33;22.83;;;;;;;;;;6214602;23;20388;-78
2023/05/17 03:24:39;;;;;;;55.75;23.30;;;;;;;;;;6214530;23;20000;-77
2023/05/17 03:27:05;;;;;;;55.20;21.20;;;;;;;;;;6213467;23;20096;-77
2023/05/17 03:29:30;;;;;;;57.03;22.35;;;;;;;;;;6213022;23;20423;-77
2023/05/17 03:31:55;;;;;;;46.78;20.77;;;;;;;;;;6213191;23;20005;-77
2023/05/17 03:34:21;;;;;;;51.25;22.17;;;;;;;;;;6213103;23;20004;-76
2023/05/17 03:36:46;;;;;;;47.55;20.80;;;;;;;;;;6187899;23;20024;-76
2023/05/17 03:39:12;;;;;;;56.05;22.50;;;;;;;;;;6187939;23;20394;-76
2023/05/17 03:41:37;;;;;;;46.00;20.33;;;;;;;;;;6213385;23;20083;-75
2023/05/17 03:44:03;;;;;;;47.80;20.17;;;;;;;;;;6212968;23;20087;-77
2023/05/17 03:46:28;;;;;;;44.42;20.50;;;;;;;;;;6214442;23;19997;-76
2023/05/17 03:48:54;;;;;;;52.75;19.98;;;;;;;;;;6214942;23;20005;-76
2023/05/17 03:51:19;;;;;;;50.53;19.90;;;;;;;;;;6187301;23;20420;-77
2023/05/17 03:53:45;;;;;;;49.15;19.92;;;;;;;;;;6212862;23;20451;-76
2023/05/17 03:56:10;;;;;;;48.30;20.77;;;;;;;;;;6214371;23;20012;-78
2023/05/17 03:58:36;;;;;;;53.08;19.08;;;;;;;;;;6212590;23;20008;-77
2023/05/17 04:01:02;;;;;;;42.58;20.02;;;;;;;;;;6212956;23;20008;-77
2023/05/17 04:03:27;;;;;;;42.55;18.95;;;;;;;;;;6187960;23;20000;-78
2023/05/17 04:05:54;;;;;;;45.38;19.13;;;;;;;;;;6214236;23;20055;-77
2023/05/17 04:08:19;;;;;;;43.63;18.88;;;;;;;;;;6212601;23;20008;-78
2023/05/17 04:10:44;;;;;;;51.92;19.63;;;;;;;;;;6214099;23;20016;-76
2023/05/17 04:13:10;;;;;;;44.20;18.92;;;;;;;;;;6212747;23;20001;-77
2023/05/17 04:15:35;;;;;;;44.22;18.52;;;;;;;;;;6212555;23;20403;-77
2023/05/17 04:18:01;;;;;;;39.15;18.58;;;;;;;;;;6212214;23;20028;-77
2023/05/17 04:20:26;;;;;;;41.90;18.25;;;;;;;;;;6187532;23;20027;-77
2023/05/17 04:22:52;;;;;;;41.63;19.45;;;;;;;;;;6214009;23;20066;-78
2023/05/17 04:25:17;;;;;;;46.63;19.00;;;;;;;;;;6187398;23;20643;-77
2023/05/17 04:27:44;;;;;;;47.00;19.75;;;;;;;;;;6213787;23;20001;-77
2023/05/17 04:30:10;;;;;;;44.05;19.17;;;;;;;;;;6213858;23;20015;-77
2023/05/17 04:32:36;;;;;;;47.90;18.65;;;;;;;;;;6213597;23;20034;-77
2023/05/17 04:35:02;;;;;;;40.03;17.85;;;;;;;;;;6214055;23;20035;-77
2023/05/17 04:37:27;;;;;;;49.38;18.98;;;;;;;;;;6213047;23;20099;-78
2023/05/17 04:39:53;;;;;;;43.63;17.65;;;;;;;;;;6186985;23;20016;-78
2023/05/17 04:42:18;;;;;;;40.03;16.75;;;;;;;;;;6216814;23;20005;-86
2023/05/17 04:44:44;;;;;;;39.60;18.38;;;;;;;;;;6168315;23;20036;-88
2023/05/17 04:47:09;;;;;;;42.63;18.73;;;;;;;;;;6211186;23;20009;-87
2023/05/17 04:49:36;;;;;;;41.65;18.13;;;;;;;;;;6211743;23;20014;-87
2023/05/17 04:52:01;;;;;;;43.75;18.00;;;;;;;;;;6214910;23;20062;-87
2023/05/17 04:54:27;;;;;;;43.05;19.25;;;;;;;;;;6223403;23;20009;-85
2023/05/17 04:56:55;;;;;;;38.10;17.50;;;;;;;;;;6219965;23;20000;-85
2023/05/17 05:00:01;;;;;;;47.53;19.50;;;;;;;;;;6194490;23;20023;-85
2023/05/17 05:02:26;;;;;;;40.15;17.02;;;;;;;;;;6092065;23;20006;-84
2023/05/17 05:04:52;;;;;;;43.13;18.85;;;;;;;;;;6043012;23;20092;-86
2023/05/17 05:07:17;;;;;;;44.38;16.92;;;;;;;;;;6131394;23;20005;-85
2023/05/17 05:09:43;;;;;;;48.45;18.10;;;;;;;;;;6206081;23;20560;-77
2023/05/17 05:12:08;;;;;;;45.08;18.08;;;;;;;;;;6205358;23;20007;-77
2023/05/17 05:14:34;;;;;;;46.83;18.70;;;;;;;;;;6206871;23;20423;-77
2023/05/17 05:16:59;;;;;;;46.67;17.63;;;;;;;;;;6203191;23;20083;-76
2023/05/17 05:19:25;;;;;;;47.60;18.25;;;;;;;;;;6206260;23;20079;-76
2023/05/17 05:21:51;;;;;;;40.72;18.10;;;;;;;;;;6203971;23;20035;-77
2023/05/17 05:24:17;;;;;;;42.53;17.70;;;;;;;;;;6205941;23;20031;-76
2023/05/17 05:26:43;;;;;;;45.58;16.85;;;;;;;;;;6207826;23;20079;-78
2023/05/17 05:29:09;;;;;;;42.85;16.77;;;;;;;;;;6208611;23;20005;-77
2023/05/17 05:31:34;;;;;;;36.97;16.52;;;;;;;;;;6204749;23;20015;-77
2023/05/17 05:34:00;;;;;;;51.58;16.92;;;;;;;;;;6207128;23;20074;-78
2023/05/17 05:36:25;;;;;;;39.78;16.48;;;;;;;;;;6208949;23;20008;-77
2023/05/17 05:38:53;;;;;;;42.63;17.42;;;;;;;;;;6208515;23;19996;-76
2023/05/17 05:41:19;;;;;;;40.95;17.05;;;;;;;;;;6207909;23;20459;-77
2023/05/17 05:43:44;;;;;;;38.50;17.30;;;;;;;;;;6182772;23;20047;-77
2023/05/17 05:46:11;;;;;;;36.22;16.42;;;;;;;;;;6209278;23;20001;-77
2023/05/17 05:48:40;;;;;;;36.90;15.57;;;;;;;;;;6207716;23;20016;-77
2023/05/17 05:51:09;;;;;;;38.55;15.55;;;;;;;;;;6206147;23;20075;-78
2023/05/17 05:53:35;;;;;;;36.58;15.82;;;;;;;;;;6205836;23;20036;-78
2023/05/17 05:56:01;;;;;;;40.63;16.42;;;;;;;;;;6206652;23;20001;-77
2023/05/17 05:58:28;;;;;;;40.85;15.68;;;;;;;;;;6207679;23;20087;-78
2023/05/17 06:07:42;;;;;;;37.45;14.45;;;;;;;;;;6081849;23;20032;-79
2023/05/17 06:10:08;;;;;;;32.33;14.43;;;;;;;;;;6178798;23;20060;-78
2023/05/17 06:12:33;;;;;;;32.95;15.35;;;;;;;;;;6180036;23;20005;-76
2023/05/17 06:14:59;;;;;;;42.58;16.00;;;;;;;;;;6183124;23;20087;-77
2023/05/17 06:17:25;;;;;;;32.83;14.02;;;;;;;;;;6184243;23;20083;-76
2023/05/17 06:19:51;;;;;;;28.38;13.18;;;;;;;;;;6182878;23;20012;-76
2023/05/17 06:22:16;;;;;;;31.17;13.77;;;;;;;;;;6156133;23;20419;-77
2023/05/17 06:24:42;;;;;;;34.42;14.13;;;;;;;;;;6182114;23;20005;-78
2023/05/17 06:27:09;;;;;;;36.05;13.68;;;;;;;;;;6182408;23;19997;-79
2023/05/17 06:29:35;;;;;;;31.95;14.20;;;;;;;;;;6183308;23;20104;-78
2023/05/17 06:32:01;;;;;;;32.15;13.38;;;;;;;;;;6182998;23;20032;-79
2023/05/17 06:34:27;;;;;;;33.40;14.70;;;;;;;;;;6146111;23;20377;-78
2023/05/17 06:36:52;;;;;;;28.35;13.93;;;;;;;;;;6133362;23;20028;-77
2023/05/17 06:39:17;;;;;;;29.88;14.25;;;;;;;;;;6188488;23;20300;-79
2023/05/17 06:41:43;;;;;;;28.67;12.82;;;;;;;;;;6191800;23;20312;-81
2023/05/17 06:44:09;;;;;;;31.60;13.75;;;;;;;;;;6197207;23;20001;-84
2023/05/17 06:46:34;;;;;;;32.88;14.35;;;;;;;;;;6203940;23;20003;-83
2023/05/17 06:49:00;;;;;;;29.42;13.20;;;;;;;;;;6171071;23;20025;-84
2023/05/17 06:51:38;;;;;;;30.55;14.13;;;;;;;;;;6181917;23;20067;-83
2023/05/17 06:54:04;;;;;;;31.10;13.55;;;;;;;;;;6150775;23;20001;-82
2023/05/17 06:56:30;;;;;;;30.83;14.30;;;;;;;;;;6176900;23;20359;-84
2023/05/17 06:58:56;;;;;;;31.55;13.05;;;;;;;;;;6126656;23;20079;-84
2023/05/17 07:01:21;;;;;;;33.50;13.52;;;;;;;;;;6150656;23;20004;-83
2023/05/17 07:03:47;;;;;;;37.05;13.93;;;;;;;;;;6177841;23;20665;-84
2023/05/17 07:08:47;;;;;;;28.98;13.15;;;;;;;;;;6210854;23;20090;-82
2023/05/17 07:11:34;;;;;;;26.67;13.35;;;;;;;;;;6182934;23;20005;-85
2023/05/17 07:14:00;;;;;;;33.10;13.75;;;;;;;;;;6210302;23;20099;-83
2023/05/17 07:16:25;;;;;;;32.85;13.70;;;;;;;;;;6211179;23;20005;-82
2023/05/17 07:18:51;;;;;;;26.13;13.25;;;;;;;;;;6216349;23;20555;-83
2023/05/17 07:21:22;;;;;;;31.60;13.27;;;;;;;;;;6210911;23;20346;-83
2023/05/17 07:23:49;;;;;;;30.40;13.90;;;;;;;;;;6212058;23;20009;-83
2023/05/17 07:26:14;;;;;;;31.75;13.05;;;;;;;;;;6210188;23;20001;-83
2023/05/17 07:28:39;;;;;;;28.40;14.00;;;;;;;;;;6213524;23;20015;-84
2023/05/17 07:31:05;;;;;;;35.90;13.63;;;;;;;;;;6209607;23;20004;-84
2023/05/17 07:33:30;;;;;;;29.63;12.75;;;;;;;;;;6211281;23;20039;-84
2023/05/17 07:35:56;;;;;;;27.92;12.75;;;;;;;;;;6211577;23;20000;-84
2023/05/17 07:38:41;;;;;;;;;;;;;;;;;;;;;
2023/05/17 07:41:08;;;;;;;28.95;12.35;;;;;;;;;;6190996;23;20091;-82
2023/05/17 07:43:36;;;;;;;29.67;13.18;;;;;;;;;;6214374;23;20366;-83
2023/05/17 07:46:02;;;;;;;31.58;12.85;;;;;;;;;;6211581;23;20091;-84
2023/05/17 07:48:28;;;;;;;37.42;13.27;;;;;;;;;;6213497;23;20443;-82
2023/05/17 07:50:53;;;;;;;24.48;12.57;;;;;;;;;;6186257;23;20059;-82
2023/05/17 07:53:19;;;;;;;27.38;12.45;;;;;;;;;;6209485;23;20020;-84
2023/05/17 07:55:44;;;;;;;29.77;12.52;;;;;;;;;;6183448;23;20008;-85
2023/05/17 07:58:12;;;;;;;30.83;12.98;;;;;;;;;;6210446;23;20039;-84
2023/05/17 08:00:38;;;;;;;25.42;13.43;;;;;;;;;;6211250;23;20009;-84
2023/05/17 08:03:04;;;;;;;29.98;14.38;;;;;;;;;;6218228;23;20338;-82
2023/05/17 08:05:29;;;;;;;30.38;12.88;;;;;;;;;;6166741;23;20005;-83
2023/05/17 08:07:59;;;;;;;26.38;12.73;;;;;;;;;;6214767;23;20414;-83
2023/05/17 08:10:26;;;;;;;25.92;11.82;;;;;;;;;;6212168;23;20020;-82
2023/05/17 08:13:07;;;;;;;28.02;12.57;;;;;;;;;;6211889;23;20443;-81
2023/05/17 08:15:33;;;;;;;30.60;12.75;;;;;;;;;;6213411;23;20007;-81
2023/05/17 08:18:02;;;;;;;28.88;13.23;;;;;;;;;;6209947;23;20028;-82
2023/05/17 08:20:32;;;;;;;27.38;13.30;;;;;;;;;;6211205;23;20013;-81
2023/05/17 08:23:06;;;;;;;29.98;13.02;;;;;;;;;;6211093;23;20064;-83
2023/05/17 08:25:31;;;;;;;33.13;13.07;;;;;;;;;;6206189;23;20058;-81
2023/05/17 08:27:57;;;;;;;30.20;12.45;;;;;;;;;;6207632;23;20389;-83
2023/05/17 08:30:22;;;;;;;26.73;12.73;;;;;;;;;;6205715;23;20017;-82
2023/05/17 08:32:48;;;;;;;28.90;12.45;;;;;;;;;;6180843;23;20378;-80
2023/05/17 08:35:13;;;;;;;31.05;12.85;;;;;;;;;;6181990;23;20039;-82
2023/05/17 08:37:42;;;;;;;32.45;13.18;;;;;;;;;;6209431;23;20001;-79
2023/05/17 08:40:08;;;;;;;25.52;13.25;;;;;;;;;;6160408;23;20016;-82
2023/05/17 08:42:34;;;;;;;41.17;13.80;;;;;;;;;;6184021;23;20139;-82
2023/05/17 08:44:59;;;;;;;27.15;12.85;;;;;;;;;;6207636;23;20008;-83
2023/05/17 08:47:30;;;;;;;28.92;12.57;;;;;;;;;;6187077;23;20003;-83
2023/05/17 08:49:59;;;;;;;24.67;12.50;;;;;;;;;;6210963;23;20040;-83
2023/05/17 08:52:33;;;;;;;30.50;12.77;;;;;;;;;;6213941;23;20001;-84
2023/05/17 08:55:02;;;;;;;28.63;12.85;;;;;;;;;;6213320;23;19996;-81
2023/05/17 08:57:29;;;;;;;25.43;11.87;;;;;;;;;;6211205;23;20419;-81
2023/05/17 08:59:54;;;;;;;28.98;13.32;;;;;;;;;;6208405;23;20263;-80
2023/05/17 09:02:21;;;;;;;23.42;12.50;;;;;;;;;;6183244;23;20008;-80
2023/05/17 09:04:48;;;;;;;25.55;12.32;;;;;;;;;;6208256;23;20029;-80
2023/05/17 09:07:13;;;;;;;37.75;13.68;;;;;;;;;;6180690;23;20008;-80
2023/05/17 09:09:39;;;;;;;30.10;13.38;;;;;;;;;;6208697;23;20015;-82
2023/05/17 09:12:05;;;;;;;26.13;13.05;;;;;;;;;;6207891;23;20051;-82
2023/05/17 09:14:34;;;;;;;26.23;12.52;;;;;;;;;;6207819;23;20008;-82
2023/05/17 09:17:00;;;;;;;24.13;11.90;;;;;;;;;;6208242;23;20001;-82
2023/05/17 09:19:26;;;;;;;26.35;11.15;;;;;;;;;;6210160;23;20016;-82
2023/05/17 09:21:53;;;;;;;26.90;13.27;;;;;;;;;;6208512;23;20009;-82
2023/05/17 09:24:25;;;;;;;26.85;12.63;;;;;;;;;;6209687;23;19997;-82
2023/05/17 09:26:51;;;;;;;29.13;12.50;;;;;;;;;;6211261;23;20072;-83
2023/05/17 09:29:17;;;;;;;33.72;13.98;;;;;;;;;;6212600;23;20024;-84
2023/05/17 09:31:42;;;;;;;36.20;14.90;;;;;;;;;;6212456;23;20064;-81
2023/05/17 09:34:09;;;;;;;29.67;12.82;;;;;;;;;;6211785;23;20012;-80
2023/05/17 09:36:41;;;;;;;28.35;13.27;;;;;;;;;;6185759;23;20103;-79
2023/05/17 09:39:10;;;;;;;28.75;12.65;;;;;;;;;;6209967;23;20375;-80
2023/05/17 09:41:47;;;;;;;32.40;13.27;;;;;;;;;;6212209;23;20008;-82
2023/05/17 09:44:13;;;;;;;25.60;12.40;;;;;;;;;;6208208;23;20055;-80
2023/05/17 09:46:46;;;;;;;29.50;13.07;;;;;;;;;;6207100;23;20062;-79
2023/05/17 09:49:12;;;;;;;28.40;12.93;;;;;;;;;;6156145;23;20001;-81
2023/05/17 09:51:44;;;;;;;29.13;12.50;;;;;;;;;;6206523;23;20001;-80
2023/05/17 09:54:10;;;;;;;22.50;12.52;;;;;;;;;;6204600;23;20501;-79
2023/05/17 09:56:35;;;;;;;29.40;13.70;;;;;;;;;;6177216;23;20011;-78
2023/05/17 09:59:02;;;;;;;24.88;12.38;;;;;;;;;;6204231;23;20005;-79
2023/05/17 10:01:30;;;;;;;30.05;12.48;;;;;;;;;;6204448;23;20001;-83
2023/05/17 10:03:59;;;;;;;26.95;12.65;;;;;;;;;;6203086;23;20004;-80
2023/05/17 10:06:25;;;;;;;26.58;13.25;;;;;;;;;;6204161;23;20158;-81
2023/05/17 10:08:55;;;;;;;35.40;14.77;;;;;;;;;;6179761;23;20440;-81
2023/05/17 10:11:27;;;;;;;22.98;13.45;;;;;;;;;;6202734;23;20550;-81
2023/05/17 10:14:21;;;;;;;32.00;14.40;;;;;;;;;;6206171;23;20032;-80
2023/05/17 10:16:50;;;;;;;30.95;13.40;;;;;;;;;;6162493;23;20004;-78
2023/05/17 10:19:18;;;;;;;32.27;13.17;;;;;;;;;;6181160;23;20054;-80
2023/05/17 10:21:46;;;;;;;29.08;13.65;;;;;;;;;;6206575;23;20873;-80
2023/05/17 10:24:11;;;;;;;22.95;12.95;;;;;;;;;;6204818;23;20135;-80
2023/05/17 10:26:37;;;;;;;29.58;13.50;;;;;;;;;;6182001;23;20390;-81
2023/05/17 10:29:03;;;;;;;29.42;13.63;;;;;;;;;;6181456;23;20091;-79
2023/05/17 10:31:29;;;;;;;26.45;13.57;;;;;;;;;;6206539;23;20036;-78
2023/05/17 10:33:54;;;;;;;29.67;13.32;;;;;;;;;;6204345;23;20503;-81
2023/05/17 10:36:21;;;;;;;26.13;13.60;;;;;;;;;;6206488;23;20004;-81
2023/05/17 10:38:48;;;;;;;28.08;13.52;;;;;;;;;;6205932;23;20012;-80
2023/05/17 10:41:26;;;;;;;30.90;14.70;;;;;;;;;;6203335;23;20009;-80
2023/05/17 10:43:57;;;;;;;32.88;13.70;;;;;;;;;;6179262;23;20005;-81
2023/05/17 10:46:24;;;;;;;39.15;13.73;;;;;;;;;;6178550;23;20103;-78
2023/05/17 10:48:51;;;;;;;26.65;13.38;;;;;;;;;;6179190;23;20012;-81
2023/05/17 10:51:24;;;;;;;37.35;14.13;;;;;;;;;;6208098;23;20091;-81
2023/05/17 10:54:11;;;;;;;31.60;14.10;;;;;;;;;;6205218;23;20036;-81
2023/05/17 10:56:50;;;;;;;29.92;13.32;;;;;;;;;;6205430;23;20325;-81
2023/05/17 10:59:24;;;;;;;24.13;13.40;;;;;;;;;;6204012;23;20091;-79
2023/05/17 11:02:05;;;;;;;31.50;14.10;;;;;;;;;;6209001;23;20375;-82
2023/05/17 11:04:38;;;;;;;30.77;13.18;;;;;;;;;;6209415;23;20000;-83
2023/05/17 11:07:22;;;;;;;35.90;13.38;;;;;;;;;;6210234;23;20008;-82
2023/05/17 11:09:54;;;;;;;31.42;13.15;;;;;;;;;;6210076;23;20286;-82
2023/05/17 11:12:36;;;;;;;25.17;12.60;;;;;;;;;;6213616;23;20005;-82
2023/05/17 11:15:07;;;;;;;32.78;13.43;;;;;;;;;;6188213;23;20004;-81
2023/05/17 11:17:41;;;;;;;31.35;13.57;;;;;;;;;;6214491;23;20344;-81
2023/05/17 11:20:27;;;;;;;27.67;12.85;;;;;;;;;;6213211;23;19996;-81
2023/05/17 11:22:59;;;;;;;25.70;12.77;;;;;;;;;;6211935;23;20163;-82
2023/05/17 11:25:34;;;;;;;33.88;13.80;;;;;;;;;;6213762;23;20032;-79
2023/05/17 11:28:00;;;;;;;24.33;12.65;;;;;;;;;;6184779;23;20067;-82
2023/05/17 11:30:30;;;;;;;27.10;13.80;;;;;;;;;;6209523;23;20009;-80
2023/05/17 11:33:04;;;;;;;24.00;12.85;;;;;;;;;;6156771;23;20032;-81
2023/05/17 11:35:44;;;;;;;33.35;13.80;;;;;;;;;;6157710;23;20008;-81
2023/05/17 11:38:13;;;;;;;;;;;;;;;;;;6182925;23;20024;-80
2023/05/17 11:40:39;;;;;;;25.67;12.32;;;;;;;;;;6209348;23;20259;-82
2023/05/17 11:43:09;;;;;;;33.13;13.95;;;;;;;;;;6208694;23;20000;-80
2023/05/17 11:45:46;;;;;;;26.02;12.82;;;;;;;;;;6207870;23;20407;-81
2023/05/17 11:48:12;;;;;;;27.20;13.80;;;;;;;;;;6207907;23;20011;-80
2023/05/17 11:50:38;;;;;;;41.55;13.80;;;;;;;;;;6204337;23;20018;-81
2023/05/17 11:53:07;;;;;;;31.42;14.05;;;;;;;;;;6181217;23;20151;-81
2023/05/17 11:55:36;;;;;;;34.97;14.38;;;;;;;;;;6182076;23;20004;-81
2023/05/17 11:58:02;;;;;;;38.20;14.45;;;;;;;;;;6207021;23;20451;-80
2023/05/17 12:00:27;;;;;;;28.05;13.15;;;;;;;;;;6181608;23;20001;-80
2023/05/17 12:02:53;;;;;;;49.78;17.70;;;;;;;;;;6207813;23;20038;-80
2023/05/17 12:05:19;;;;;;;48.53;22.65;;;;;;;;;;6212194;23;20004;-80
2023/05/17 12:07:45;;;;;;;28.75;15.10;;;;;;;;;;6214008;23;20054;-80
2023/05/17 12:10:12;;;;;;;31.27;14.10;;;;;;;;;;6187642;23;20087;-80
2023/05/17 12:12:37;;;;;;;31.42;14.63;;;;;;;;;;6187640;23;20004;-79
2023/05/17 12:15:03;;;;;;;35.47;13.93;;;;;;;;;;6187532;23;20004;-79
2023/05/17 12:17:37;;;;;;;29.77;14.07;;;;;;;;;;6213737;23;20490;-80
2023/05/17 12:20:07;;;;;;;33.22;14.20;;;;;;;;;;6212081;23;20005;-81
2023/05/17 12:22:32;;;;;;;29.17;13.60;;;;;;;;;;6188022;23;20095;-81
2023/05/17 12:24:58;;;;;;;28.85;13.55;;;;;;;;;;6212916;23;20060;-81
2023/05/17 12:27:25;;;;;;;33.00;14.63;;;;;;;;;;6212218;23;20005;-82
2023/05/17 12:29:50;;;;;;;31.67;14.38;;;;;;;;;;6211086;23;20040;-81
2023/05/17 12:32:17;;;;;;;39.72;16.80;;;;;;;;;;6212500;23;20427;-81
2023/05/17 12:34:43;;;;;;;37.35;15.85;;;;;;;;;;6186737;23;20012;-81
2023/05/17 12:37:11;;;;;;;30.08;13.90;;;;;;;;;;6188113;23;20004;-81
2023/05/17 12:39:37;;;;;;;35.60;13.55;;;;;;;;;;6189098;23;20012;-81
2023/05/17 12:42:02;;;;;;;29.95;13.07;;;;;;;;;;6161498;23;20342;-82
2023/05/17 12:44:28;;;;;;;31.70;13.75;;;;;;;;;;6160817;23;20008;-82
2023/05/17 12:46:56;;;;;;;32.83;12.75;;;;;;;;;;6210726;23;19996;-80
2023/05/17 12:49:21;;;;;;;28.30;12.27;;;;;;;;;;6186900;23;20412;-80
2023/05/17 12:51:47;;;;;;;24.73;12.90;;;;;;;;;;6185948;23;20098;-80
2023/05/17 12:54:33;;;;;;;29.50;12.25;;;;;;;;;;6212472;23;20001;-80
2023/05/17 12:57:12;;;;;;;25.05;11.43;;;;;;;;;;6212907;23;20020;-80
2023/05/17 12:59:48;;;;;;;31.67;13.50;;;;;;;;;;6163928;23;20347;-80
2023/05/17 13:02:14;;;;;;;23.25;11.95;;;;;;;;;;6213601;23;20024;-80
2023/05/17 13:04:40;;;;;;;31.23;13.30;;;;;;;;;;6212518;23;20344;-81
2023/05/17 13:07:05;;;;;;;29.65;13.40;;;;;;;;;;6187150;23;20009;-81
2023/05/17 13:09:31;;;;;;;31.73;13.52;;;;;;;;;;6187043;23;20008;-82
2023/05/17 13:12:03;;;;;;;26.77;12.13;;;;;;;;;;6213584;23;20051;-80
2023/05/17 13:14:38;;;;;;;32.10;12.07;;;;;;;;;;6186963;23;20008;-81
2023/05/17 13:17:04;;;;;;;28.33;11.73;;;;;;;;;;6212164;23;20072;-81
2023/05/17 13:19:30;;;;;;;29.02;11.68;;;;;;;;;;6186993;23;20150;-81
2023/05/17 13:21:55;;;;;;;31.33;12.23;;;;;;;;;;6212428;23;20001;-81
2023/05/17 13:24:21;;;;;;;24.35;11.63;;;;;;;;;;6211677;23;20005;-81
2023/05/17 13:26:46;;;;;;;25.30;11.73;;;;;;;;;;6213784;23;20448;-82
2023/05/17 13:29:12;;;;;;;37.92;13.07;;;;;;;;;;6211894;23;20009;-82
2023/05/17 13:31:37;;;;;;;31.45;12.45;;;;;;;;;;6211924;23;20007;-81
2023/05/17 13:34:03;;;;;;;27.90;12.75;;;;;;;;;;6212213;23;20091;-81
2023/05/17 13:36:28;;;;;;;29.55;13.23;;;;;;;;;;6187269;23;20004;-81
2023/05/17 13:38:55;;;;;;;35.63;13.65;;;;;;;;;;6213441;23;20001;-81
2023/05/17 13:41:21;;;;;;;32.22;14.13;;;;;;;;;;6213154;23;20005;-81
2023/05/17 13:43:46;;;;;;;35.47;14.35;;;;;;;;;;6187012;23;20446;-82
2023/05/17 13:46:11;;;;;;;32.65;14.35;;;;;;;;;;6213435;23;20043;-81
2023/05/17 13:48:37;;;;;;;32.17;13.52;;;;;;;;;;6213815;23;20008;-81
2023/05/17 13:51:02;;;;;;;36.28;13.38;;;;;;;;;;6211928;23;20015;-82
2023/05/17 13:53:28;;;;;;;31.38;14.25;;;;;;;;;;6186749;23;20011;-81
2023/05/17 13:55:53;;;;;;;29.92;14.15;;;;;;;;;;6213208;23;20435;-80
2023/05/17 13:58:19;;;;;;;34.63;14.80;;;;;;;;;;6212177;23;20008;-81
2023/05/17 14:00:44;;;;;;;45.47;13.57;;;;;;;;;;6211843;23;20020;-80
2023/05/17 14:03:11;;;;;;;34.92;14.35;;;;;;;;;;6186777;23;20085;-82
2023/05/17 14:05:36;;;;;;;37.78;15.65;;;;;;;;;;6211812;23;20031;-83
2023/05/17 14:08:02;;;;;;;33.90;14.18;;;;;;;;;;6211783;23;20379;-81
2023/05/17 14:10:28;;;;;;;32.90;14.75;;;;;;;;;;6211356;23;20489;-80
2023/05/17 14:12:53;;;;;;;29.45;14.07;;;;;;;;;;6186769;23;20413;-81
2023/05/17 14:15:18;;;;;;;29.92;14.30;;;;;;;;;;6211875;23;20339;-81
2023/05/17 14:17:44;;;;;;;30.63;15.05;;;;;;;;;;6213279;23;20439;-81
2023/05/17 14:20:10;;;;;;;37.40;14.80;;;;;;;;;;6211901;23;20012;-81
2023/05/17 14:22:36;;;;;;;36.25;15.10;;;;;;;;;;6213423;23;20087;-84
2023/05/17 14:25:01;;;;;;;34.70;13.50;;;;;;;;;;6211628;23;20004;-83
2023/05/17 14:27:27;;;;;;;29.67;13.48;;;;;;;;;;6213363;23;20000;-81
2023/05/17 14:29:52;;;;;;;37.90;15.43;;;;;;;;;;6186826;23;20004;-83
2023/05/17 14:32:18;;;;;;;42.55;15.63;;;;;;;;;;6161937;23;20009;-82